createdAt,value
2022-08-22T00:01:36.320Z,3.47
2022-08-22T00:02:53.827Z,2.65
2022-08-22T00:02:57.619Z,3.13
2022-08-22T00:04:41.844Z,2.95
2022-08-22T00:08:01.488Z,3.67
2022-08-22T00:11:13.675Z,3.25
2022-08-22T00:14:17.697Z,3.40
2022-08-22T00:17:25.275Z,3.40
2022-08-22T00:20:31.215Z,3.28
2022-08-22T00:23:32.836Z,3.70
2022-08-22T00:26:46.766Z,3.20
2022-08-22T00:29:51.399Z,3.50
2022-08-22T00:32:50.917Z,3.40
2022-08-22T00:35:47.324Z,3.90
2022-08-22T00:38:42.538Z,3.85
2022-08-22T00:42:29.498Z,3.70
2022-08-22T00:45:38.736Z,4.05
2022-08-22T00:48:58.186Z,3.90
2022-08-22T00:52:42.903Z,3.50
2022-08-22T00:56:04.040Z,4.10
2022-08-22T00:58:51.998Z,3.50
2022-08-22T01:02:08.337Z,3.80
2022-08-22T01:05:23.341Z,4.00
2022-08-22T01:08:19.727Z,3.70
2022-08-22T01:11:22.809Z,3.53
2022-08-22T01:14:39.364Z,3.30
2022-08-22T01:17:32.635Z,4.05
2022-08-22T01:20:49.395Z,3.63
2022-08-22T01:24:03.289Z,3.97
2022-08-22T01:27:05.571Z,3.67
2022-08-22T01:30:12.597Z,3.90
2022-08-22T01:33:37.761Z,3.80
2022-08-22T01:36:44.287Z,3.63
2022-08-22T01:39:56.940Z,4.00
2022-08-22T01:43:08.897Z,3.70
2022-08-22T01:46:10.333Z,3.53
2022-08-22T01:48:58.464Z,3.80
2022-08-22T01:52:13.569Z,3.58
2022-08-22T01:55:10.661Z,3.40
2022-08-22T01:58:03.015Z,3.53
2022-08-22T02:01:03.861Z,3.70
2022-08-22T02:04:07.385Z,3.83
2022-08-22T02:06:58.590Z,3.95
2022-08-22T02:12:55.690Z,4.57
2022-08-22T02:16:00.441Z,4.43
2022-08-22T02:18:59.658Z,4.28
2022-08-22T02:21:53.636Z,5.50
2022-08-22T02:24:51.245Z,4.90
2022-08-22T02:28:18.643Z,6.13
2022-08-22T02:31:16.766Z,4.82
2022-08-22T02:34:20.154Z,6.50
2022-08-22T02:37:15.115Z,5.55
2022-08-22T02:40:27.942Z,5.50
2022-08-22T02:43:27.610Z,5.60
2022-08-22T02:46:17.850Z,5.43
2022-08-22T02:49:28.445Z,5.45
2022-08-22T02:52:25.853Z,5.20
2022-08-22T02:55:29.707Z,4.72
2022-08-22T02:58:59.281Z,4.45
2022-08-22T03:01:48.630Z,3.90
2022-08-22T03:04:42.398Z,4.88
2022-08-22T03:07:41.923Z,5.10
2022-08-22T03:10:38.732Z,5.22
2022-08-22T03:13:52.612Z,5.22
2022-08-22T03:17:07.034Z,5.03
2022-08-22T03:20:08.086Z,4.70
2022-08-22T03:23:15.645Z,5.43
2022-08-22T03:26:36.616Z,5.22
2022-08-22T03:29:32.910Z,5.60
2022-08-22T03:32:23.869Z,6.88
2022-08-22T03:35:24.346Z,5.57
2022-08-22T03:38:21.311Z,6.90
2022-08-22T03:41:41.962Z,4.70
2022-08-22T03:45:00.160Z,4.75
2022-08-22T03:47:54.234Z,4.57
2022-08-22T03:50:59.380Z,5.60
2022-08-22T03:54:06.086Z,6.90
2022-08-22T03:57:40.146Z,5.97
2022-08-22T04:00:52.969Z,5.95
2022-08-22T04:04:02.555Z,6.03
2022-08-22T04:06:59.535Z,4.85
2022-08-22T04:10:04.151Z,6.07
2022-08-22T04:13:06.854Z,5.13
2022-08-22T04:16:32.445Z,4.60
2022-08-22T04:19:28.168Z,4.40
2022-08-22T04:22:43.309Z,3.78
2022-08-22T04:25:30.538Z,3.55
2022-08-22T04:28:38.012Z,4.18
2022-08-22T04:31:32.132Z,4.65
2022-08-22T04:34:35.073Z,5.28
2022-08-22T04:37:28.290Z,5.70
2022-08-22T04:40:23.330Z,8.10
2022-08-22T04:43:26.115Z,6.18
2022-08-22T04:46:36.804Z,5.07
2022-08-22T04:49:43.498Z,5.40
2022-08-22T04:52:46.413Z,5.55
2022-08-22T04:56:07.885Z,5.50
2022-08-22T04:59:03.662Z,5.80
2022-08-22T05:02:06.287Z,4.72
2022-08-22T05:05:13.599Z,5.55
2022-08-22T05:08:04.467Z,5.50
2022-08-22T05:10:54.057Z,6.10
2022-08-22T05:13:47.234Z,5.97
2022-08-22T05:16:41.119Z,7.20
2022-08-22T05:19:34.718Z,7.95
2022-08-22T05:22:28.094Z,5.65
2022-08-22T05:25:21.806Z,4.78
2022-08-22T05:28:15.829Z,4.80
2022-08-22T05:31:08.993Z,4.93
2022-08-22T05:34:06.182Z,5.20
2022-08-22T05:37:08.209Z,5.20
2022-08-22T05:39:59.475Z,5.03
2022-08-22T05:42:47.062Z,4.22
2022-08-22T05:45:36.524Z,4.20
2022-08-22T05:48:34.253Z,4.20
2022-08-22T05:51:27.238Z,4.53
2022-08-22T05:54:20.093Z,4.07
2022-08-22T05:57:26.771Z,3.83
2022-08-22T06:00:21.620Z,3.78
2022-08-22T06:03:33.603Z,3.40
2022-08-22T06:06:21.871Z,3.75
2022-08-22T06:09:24.121Z,3.40
2022-08-22T06:12:22.271Z,3.70
2022-08-22T06:15:42.322Z,3.63
2022-08-22T06:18:32.821Z,3.80
2022-08-22T06:21:39.558Z,3.93
2022-08-22T06:24:28.175Z,3.80
2022-08-22T06:27:19.790Z,3.83
2022-08-22T06:30:08.870Z,3.72
2022-08-22T06:33:05.533Z,3.80
2022-08-22T06:36:20.655Z,3.65
2022-08-22T06:39:23.656Z,3.78
2022-08-22T06:42:16.748Z,4.78
2022-08-22T06:45:12.058Z,4.40
2022-08-22T06:48:05.945Z,3.83
2022-08-22T06:50:58.716Z,4.35
2022-08-22T06:53:50.028Z,4.15
2022-08-22T06:56:44.062Z,3.95
2022-08-22T06:59:35.386Z,3.70
2022-08-22T07:02:45.727Z,3.90
2022-08-22T07:05:39.255Z,3.10
2022-08-22T07:08:29.592Z,3.30
2022-08-22T07:11:27.586Z,3.38
2022-08-22T07:14:17.873Z,3.50
2022-08-22T07:17:08.946Z,3.50
2022-08-22T07:20:06.399Z,3.25
2022-08-22T07:23:04.458Z,3.60
2022-08-22T07:26:11.543Z,3.55
2022-08-22T07:29:17.206Z,3.53
2022-08-22T07:32:14.271Z,3.58
2022-08-22T07:35:11.396Z,3.80
2022-08-22T07:38:07.899Z,3.95
2022-08-22T07:41:22.655Z,3.47
2022-08-22T07:44:17.642Z,3.88
2022-08-22T07:47:16.421Z,3.90
2022-08-22T07:50:12.888Z,4.03
2022-08-22T07:53:28.411Z,3.92
2022-08-22T07:56:22.353Z,4.00
2022-08-22T07:59:14.592Z,3.78
2022-08-22T08:02:07.910Z,3.97
2022-08-22T08:04:57.542Z,3.92
2022-08-22T08:07:46.499Z,4.00
2022-08-22T08:10:37.378Z,3.75
2022-08-22T08:13:29.913Z,3.92
2022-08-22T08:16:22.147Z,3.92
2022-08-22T08:19:12.048Z,3.78
2022-08-22T08:21:59.820Z,3.47
2022-08-22T08:24:49.098Z,3.47
2022-08-22T08:27:57.006Z,3.65
2022-08-22T08:30:54.684Z,3.53
2022-08-22T08:33:45.988Z,3.20
2022-08-22T08:36:56.581Z,3.40
2022-08-22T08:39:51.880Z,3.50
2022-08-22T08:43:10.605Z,3.55
2022-08-22T08:46:27.200Z,3.40
2022-08-22T08:49:33.622Z,3.30
2022-08-22T08:52:26.921Z,3.63
2022-08-22T08:55:33.231Z,3.25
2022-08-22T08:58:43.450Z,3.10
2022-08-22T09:01:53.381Z,3.13
2022-08-22T09:05:19.636Z,2.95
2022-08-22T09:08:43.949Z,2.70
2022-08-22T09:11:52.726Z,2.97
2022-08-22T09:15:01.678Z,3.30
2022-08-22T09:18:05.705Z,2.70
2022-08-22T09:21:32.178Z,2.90
2022-08-22T09:24:41.458Z,3.08
2022-08-22T09:27:55.630Z,2.90
2022-08-22T09:30:48.906Z,2.97
2022-08-22T09:34:00.231Z,3.00
2022-08-22T09:37:26.632Z,2.67
2022-08-22T09:43:44.759Z,2.85
2022-08-22T09:47:14.475Z,3.00
2022-08-22T09:50:05.439Z,2.72
2022-08-22T09:53:19.498Z,3.10
2022-08-22T09:56:15.792Z,2.65
2022-08-22T09:59:37.003Z,3.03
2022-08-22T10:02:43.556Z,2.90
2022-08-22T10:05:44.109Z,2.40
2022-08-22T10:08:47.046Z,2.70
2022-08-22T10:11:46.232Z,2.85
2022-08-22T10:14:54.344Z,2.70
2022-08-22T10:18:28.468Z,2.75
2022-08-22T10:21:45.230Z,2.50
2022-08-22T10:24:59.995Z,2.60
2022-08-22T10:28:10.436Z,2.38
2022-08-22T10:31:01.433Z,2.90
2022-08-22T10:34:09.258Z,2.92
2022-08-22T10:37:24.168Z,2.60
2022-08-22T10:40:23.898Z,2.70
2022-08-22T10:43:20.060Z,2.83
2022-08-22T10:46:24.290Z,2.90
2022-08-22T10:49:20.117Z,2.83
2022-08-22T10:53:16.139Z,2.80
2022-08-22T10:56:13.950Z,2.45
2022-08-22T10:59:44.730Z,2.70
2022-08-22T11:05:38.210Z,2.70
2022-08-22T11:08:39.972Z,2.60
2022-08-22T11:12:05.415Z,2.67
2022-08-22T11:15:13.910Z,2.70
2022-08-22T11:18:23.550Z,3.00
2022-08-22T11:21:24.676Z,2.83
2022-08-22T11:24:35.571Z,2.55
2022-08-22T11:27:38.356Z,2.90
2022-08-22T11:31:10.905Z,2.42
2022-08-22T11:34:17.696Z,2.75
2022-08-22T11:37:19.011Z,2.50
2022-08-22T11:40:36.272Z,2.30
2022-08-22T11:43:43.093Z,2.45
2022-08-22T11:46:36.815Z,2.50
2022-08-22T11:49:27.645Z,2.75
2022-08-22T11:52:51.856Z,2.50
2022-08-22T11:55:55.292Z,2.30
2022-08-22T11:59:22.529Z,2.30
2022-08-22T12:02:25.953Z,2.17
2022-08-22T12:05:45.694Z,2.50
2022-08-22T12:08:36.453Z,2.20
2022-08-22T12:11:29.727Z,2.20
2022-08-22T12:14:33.673Z,2.20
2022-08-22T12:18:01.369Z,2.53
2022-08-22T12:20:54.464Z,2.13
2022-08-22T12:26:55.743Z,2.40
2022-08-22T12:30:12.925Z,2.45
2022-08-22T12:33:40.010Z,2.67
2022-08-22T12:36:37.064Z,2.30
2022-08-22T12:39:52.066Z,2.70
2022-08-22T12:43:00.806Z,2.25
2022-08-22T12:46:16.801Z,2.42
2022-08-22T12:49:42.626Z,2.05
2022-08-22T12:52:55.775Z,2.33
2022-08-22T12:56:05.360Z,2.30
2022-08-22T12:59:04.916Z,2.15
2022-08-22T13:01:55.751Z,2.10
2022-08-22T13:04:50.892Z,2.20
2022-08-22T13:07:42.318Z,2.13
2022-08-22T13:10:47.734Z,2.20
2022-08-22T13:13:43.453Z,2.33
2022-08-22T13:16:51.202Z,2.20
2022-08-22T13:19:57.178Z,2.17
2022-08-22T13:22:45.875Z,2.20
2022-08-22T13:25:56.623Z,2.25
2022-08-22T13:29:24.684Z,2.35
2022-08-22T13:32:46.857Z,1.83
2022-08-22T13:35:44.499Z,2.25
2022-08-22T13:38:46.520Z,2.15
2022-08-22T13:41:44.218Z,1.98
2022-08-22T13:44:38.415Z,2.05
2022-08-22T13:47:31.480Z,1.90
2022-08-22T13:50:22.740Z,2.10
2022-08-22T13:53:58.016Z,2.30
2022-08-22T13:56:57.861Z,2.20
2022-08-22T13:59:51.512Z,2.60
2022-08-22T14:03:05.328Z,2.38
2022-08-22T14:05:58.822Z,2.20
2022-08-22T14:09:50.181Z,2.28
2022-08-22T14:12:55.102Z,2.45
2022-08-22T14:15:45.406Z,2.20
2022-08-22T14:18:45.590Z,2.22
2022-08-22T14:21:55.475Z,2.00
2022-08-22T14:24:58.209Z,2.30
2022-08-22T14:28:01.044Z,2.08
2022-08-22T14:30:54.382Z,1.90
2022-08-22T14:33:51.496Z,1.90
2022-08-22T14:36:49.385Z,2.03
2022-08-22T14:39:53.753Z,2.03
2022-08-22T14:42:49.257Z,2.10
2022-08-22T14:45:42.984Z,2.10
2022-08-22T14:48:40.685Z,2.03
2022-08-22T14:51:29.547Z,2.22
2022-08-22T14:54:22.017Z,2.05
2022-08-22T14:57:20.102Z,2.10
2022-08-22T15:00:12.392Z,2.25
2022-08-22T15:03:16.138Z,2.25
2022-08-22T15:06:11.005Z,2.08
2022-08-22T15:09:00.474Z,1.90
2022-08-22T15:11:55.371Z,1.90
2022-08-22T15:14:52.440Z,2.00
2022-08-22T15:17:50.951Z,1.75
2022-08-22T15:20:45.394Z,1.85
2022-08-22T15:23:45.136Z,1.48
2022-08-22T15:26:40.904Z,2.20
2022-08-22T15:29:31.403Z,2.13
2022-08-22T15:32:26.716Z,1.90
2022-08-22T15:35:27.477Z,1.92
2022-08-22T15:38:36.226Z,2.10
2022-08-22T15:41:36.723Z,1.70
2022-08-22T15:44:32.917Z,1.92
2022-08-22T15:47:38.554Z,1.83
2022-08-22T15:50:58.195Z,1.73
2022-08-22T15:53:45.571Z,1.65
2022-08-22T15:56:35.943Z,2.00
2022-08-22T16:02:36.600Z,1.90
2022-08-22T16:05:45.348Z,1.77
2022-08-22T16:08:54.142Z,1.70
2022-08-22T16:11:43.444Z,1.80
2022-08-22T16:14:33.705Z,1.87
2022-08-22T16:20:19.658Z,1.90
2022-08-22T16:25:59.147Z,1.88
2022-08-22T16:29:05.585Z,2.08
2022-08-22T16:31:54.650Z,1.90
2022-08-22T16:34:45.770Z,1.70
2022-08-22T16:37:47.792Z,1.90
2022-08-22T16:40:47.172Z,1.90
2022-08-22T16:43:34.505Z,1.50
2022-08-22T16:46:37.348Z,1.90
2022-08-22T16:49:39.162Z,1.90
2022-08-22T16:52:26.425Z,1.90
2022-08-22T16:55:28.924Z,1.83
2022-08-22T16:58:55.891Z,1.83
2022-08-22T17:01:55.938Z,1.90
2022-08-22T17:04:54.168Z,1.65
2022-08-22T17:08:09.389Z,1.83
2022-08-22T17:11:24.591Z,1.92
2022-08-22T17:14:31.155Z,1.73
2022-08-22T17:17:49.545Z,1.75
2022-08-22T17:20:48.253Z,1.90
2022-08-22T17:23:38.449Z,1.75
2022-08-22T17:26:50.227Z,1.70
2022-08-22T17:29:57.480Z,1.70
2022-08-22T17:33:03.559Z,1.65
2022-08-22T17:35:59.975Z,1.85
2022-08-22T17:39:15.026Z,1.83
2022-08-22T17:42:05.136Z,2.00
2022-08-22T17:45:10.148Z,2.00
2022-08-22T17:48:15.383Z,2.17
2022-08-22T17:51:29.775Z,1.80
2022-08-22T17:54:33.049Z,2.00
2022-08-22T17:57:33.010Z,1.92
2022-08-22T18:00:26.191Z,1.60
2022-08-22T18:03:23.857Z,2.22
2022-08-22T18:06:20.086Z,2.00
2022-08-22T18:09:28.015Z,1.90
2022-08-22T18:12:24.666Z,1.92
2022-08-22T18:15:23.056Z,2.08
2022-08-22T18:18:36.213Z,2.03
2022-08-22T18:21:39.207Z,1.83
2022-08-22T18:24:49.579Z,2.00
2022-08-22T18:27:40.429Z,2.05
2022-08-22T18:30:47.936Z,2.00
2022-08-22T18:33:50.642Z,2.10
2022-08-22T18:36:50.877Z,2.00
2022-08-22T18:39:52.557Z,2.10
2022-08-22T18:42:41.921Z,2.08
2022-08-22T18:45:47.505Z,2.20
2022-08-22T18:49:11.709Z,2.03
2022-08-22T18:52:06.034Z,2.50
2022-08-22T18:54:59.472Z,2.45
2022-08-22T18:58:04.814Z,2.30
2022-08-22T19:01:23.076Z,2.35
2022-08-22T19:04:33.903Z,2.30
2022-08-22T19:07:55.422Z,2.33
2022-08-22T19:11:05.119Z,2.38
2022-08-22T19:14:08.843Z,2.33
2022-08-22T19:17:15.454Z,2.30
2022-08-22T19:20:46.617Z,2.30
2022-08-22T19:23:43.741Z,2.30
2022-08-22T19:26:40.560Z,2.17
2022-08-22T19:29:29.804Z,2.47
2022-08-22T19:32:44.939Z,2.17
2022-08-22T19:35:46.407Z,2.40
2022-08-22T19:38:54.443Z,2.53
2022-08-22T19:41:57.050Z,2.20
2022-08-22T19:44:53.964Z,2.50
2022-08-22T19:47:42.526Z,2.40
2022-08-22T19:50:34.132Z,2.13
2022-08-22T19:53:41.958Z,2.00
2022-08-22T19:57:03.140Z,2.35
2022-08-22T20:00:00.372Z,1.90
2022-08-22T20:03:10.652Z,2.22
2022-08-22T20:06:40.833Z,2.20
2022-08-22T20:09:48.141Z,2.15
2022-08-22T20:12:45.875Z,2.22
2022-08-22T20:15:57.905Z,2.53
2022-08-22T20:19:01.934Z,2.38
2022-08-22T20:21:59.871Z,2.03
2022-08-22T20:25:02.864Z,2.03
2022-08-22T20:27:53.666Z,2.13
2022-08-22T20:30:45.649Z,2.17
2022-08-22T20:33:37.043Z,2.20
2022-08-22T20:36:28.334Z,2.13
2022-08-22T20:39:24.985Z,2.08
2022-08-22T20:42:37.834Z,2.35
2022-08-22T20:45:35.201Z,2.10
2022-08-22T20:48:36.338Z,2.00
2022-08-22T20:51:26.567Z,2.17
2022-08-22T20:54:21.076Z,2.17
2022-08-22T20:57:14.572Z,2.25
2022-08-22T21:00:11.573Z,2.00
2022-08-22T21:03:25.052Z,1.90
2022-08-22T21:06:28.334Z,2.30
2022-08-22T21:09:39.877Z,2.03
2022-08-22T21:12:27.780Z,2.05
2022-08-22T21:15:30.335Z,1.88
2022-08-22T21:18:31.899Z,2.00
2022-08-22T21:21:32.076Z,2.08
2022-08-22T21:24:19.477Z,2.30
2022-08-22T21:27:07.717Z,2.00
2022-08-22T21:29:56.056Z,2.15
2022-08-22T21:32:51.151Z,1.90
2022-08-22T21:36:00.611Z,2.03
2022-08-22T21:39:12.689Z,1.92
2022-08-22T21:41:59.860Z,1.80
2022-08-22T21:44:59.681Z,2.30
2022-08-22T21:47:47.037Z,1.88
2022-08-22T21:50:38.181Z,2.03
2022-08-22T21:53:27.992Z,2.00
2022-08-22T21:56:27.263Z,1.90
2022-08-22T21:59:51.450Z,1.90
2022-08-22T22:02:43.753Z,1.92
2022-08-22T22:05:31.358Z,2.20
2022-08-22T22:08:19.114Z,2.22
2022-08-22T22:11:11.435Z,2.00
2022-08-22T22:13:58.841Z,2.30
2022-08-22T22:16:46.183Z,2.10
2022-08-22T22:19:34.902Z,2.10
2022-08-22T22:22:22.187Z,2.00
2022-08-22T22:25:39.056Z,2.15
2022-08-22T22:28:21.521Z,2.00
2022-08-22T22:31:09.395Z,2.35
2022-08-22T22:33:56.672Z,2.28
2022-08-22T22:36:44.110Z,1.92
2022-08-22T22:39:31.433Z,2.08
2022-08-22T22:42:18.671Z,2.10
2022-08-22T22:45:06.723Z,2.20
2022-08-22T22:47:53.933Z,2.00
2022-08-22T22:50:43.213Z,2.13
2022-08-22T22:53:38.715Z,1.90
2022-08-22T22:56:29.751Z,2.10
2022-08-22T22:59:17.765Z,2.10
2022-08-22T23:02:14.531Z,2.10
2022-08-22T23:05:01.809Z,2.00
2022-08-22T23:07:49.042Z,2.03
2022-08-22T23:10:36.601Z,2.17
2022-08-22T23:13:23.823Z,1.90
2022-08-22T23:16:13.947Z,1.80
2022-08-22T23:19:01.278Z,2.00
2022-08-22T23:21:48.572Z,1.80
2022-08-22T23:24:37.447Z,1.83
2022-08-22T23:27:25.164Z,1.90
2022-08-22T23:30:12.542Z,1.77
2022-08-22T23:33:00.036Z,1.92
2022-08-22T23:35:47.379Z,1.63
2022-08-22T23:38:34.648Z,1.80
2022-08-22T23:41:22.098Z,2.08
2022-08-22T23:44:13.568Z,1.80
2022-08-22T23:47:03.150Z,1.77
2022-08-22T23:49:50.440Z,1.90
2022-08-22T23:52:37.685Z,1.65
2022-08-22T23:55:25.176Z,1.85
2022-08-22T23:58:12.459Z,1.80
